• Join FlightAware (Why Join?)
  • Login
  • US Flag 
05:00AM EDT


 

Airport Tracker/Info


-or-


 

Live Flight TrackerFlight Track Log ✈ UAL363 ✈ 26-Apr-2013 ✈ KIAD - KORD

Flight Track Log - Related Links

Times and Time Zones

All times are in EDT time to prevent confusion due to time zone crossing. See the UAL363 flight status page for this flight to view local times or setup timezone preferences in your user account.

Time Position Orientation Groundspeed Altitude Reporting Facility
EDT Latitude Longitude Course Direction KTS MPH feet Rate Location/Type
11:30PM 38.9333 -77.5667 270° West 228 262 3,100  Level Potomac TRACON
11:31PM 38.9167 -77.6500 256° West 268 308 6,700 3,240 Climbing Potomac TRACON
11:32PM 38.8822 -77.8079 260° West  Level FlightAware Approximate
11:33PM 38.8707 -77.9287 293° West  Level FlightAware Approximate
11:33PM 38.9250 -77.7636 275° West 267 307 10,200  Level Washington Center
11:34PM 38.9030 -78.0452 288° West  Level FlightAware Approximate
11:34PM 38.9356 -77.8761 277° West 303 349 13,300  Level Washington Center
11:35PM 38.9324 -78.1631 288° West  Level FlightAware Approximate
11:35PM 38.9436 -77.9883 275° West 317 365 16,400  Level Washington Center
11:36PM 38.9500 -78.2805 270° West  Level FlightAware Approximate
11:36PM 38.9517 -78.1086 275° West 331 381 16,900  Level Washington Center
11:37PM 38.9617 -78.2267 276° West 331 381 19,100 2,340 Climbing Washington Center
11:38PM 38.9653 -78.3442 272° West 331 381 21,600 2,340 Climbing Washington Center
11:39PM 38.9689 -78.4644 272° West 331 381 23,800 1,920 Climbing Washington Center
11:40PM 38.9719 -78.5900 272° West 345 397 25,600 1,680 Climbing Washington Center
11:41PM 38.9769 -78.7211 273° West 355 409 27,300 2,160 Climbing Washington Center
11:42PM 38.9803 -78.8361 272° West 365 420 29,900 2,340 Climbing Washington Center
11:43PM 38.9833 -78.9511 272° West 354 407 32,000 1,020 Climbing Washington Center
11:44PM 38.9858 -79.0767 272° West 347 399 32,000  Level Washington Center
11:45PM 38.9906 -79.2050 273° West 358 412 32,000 840 Level Washington Center
11:46PM 38.9928 -79.3308 271° West 358 412 33,700 1,560 Climbing Washington Center
11:47PM 38.9953 -79.4536 272° West 358 412 35,200 1,380 Climbing Washington Center
11:48PM 38.9975 -79.5767 271° West 358 412 36,500 1,080 Climbing Washington Center
11:49PM 39.0011 -79.7158 272° West 353 406 37,400 720 Climbing Washington Center
11:50PM 39.0008 -79.8414 270° West 353 406 38,000 240 Climbing Washington Center
11:51PM 39.0047 -79.9672 272° West 353 406 38,000  Level Washington Center
11:52PM 39.0056 -80.1867 270° West 362 417 38,000  Level Indianapolis Center
11:53PM 39.0075 -80.3158 271° West 362 417 38,000  Level Indianapolis Center
11:54PM 39.0106 -80.4442 272° West 361 415 38,000  Level Indianapolis Center
11:55PM 39.0375 -80.5653 286° West 360 414 38,000  Level Indianapolis Center
11:56PM 39.0861 -80.6778 299° West 361 415 38,000  Level Indianapolis Center
11:57PM 39.1369 -80.7881 301° West 359 413 38,000  Level Indianapolis Center
11:58PM 39.1867 -80.8989 300° West 360 414 38,000  Level Indianapolis Center
11:59PM 39.2369 -81.0100 300° West 359 413 38,000  Level Indianapolis Center
12:00AM 39.2869 -81.1233 300° West 363 418 38,000  Level Indianapolis Center
12:01AM 39.3367 -81.2353 300° West 363 418 38,000  Level Indianapolis Center
12:02AM 39.3869 -81.3478 300° West 362 417 38,000  Level Indianapolis Center
12:03AM 39.4356 -81.4600 299° West 360 414 38,000  Level Indianapolis Center
12:04AM 39.4850 -81.5700 300° West 358 412 38,000  Level Indianapolis Center
12:05AM 39.5322 -81.6822 299° West 355 409 38,000  Level Indianapolis Center
12:06AM 39.5817 -81.7939 300° West 356 410 38,000  Level Indianapolis Center
12:07AM 39.6303 -81.9050 300° West 356 410 38,000  Level Indianapolis Center
12:08AM 39.6783 -82.0156 299° West 353 406 38,000 -60 Level Indianapolis Center
12:10AM 39.7306 -82.1392 299° West 356 410 37,900  Descending Indianapolis Center
12:11AM 39.7792 -82.2522 299° West 355 409 38,000  Climbing Indianapolis Center
12:12AM 39.8286 -82.3664 299° West 358 412 38,000  Level Indianapolis Center
12:13AM 39.8769 -82.4806 299° West 358 412 38,000  Level Indianapolis Center
12:14AM 39.9258 -82.5953 299° West 360 414 38,000  Level Indianapolis Center
12:15AM 39.9742 -82.7100 299° West 359 413 38,000 -60 Level Indianapolis Center
12:16AM 40.0231 -82.8247 299° West 358 412 37,900 -60 Descending Indianapolis Center
12:17AM 40.0706 -82.9392 299° West 358 412 37,900  Level Indianapolis Center
12:18AM 40.1183 -83.0533 299° West 359 413 38,000  Climbing Indianapolis Center
12:19AM 40.1667 -83.1678 299° West 358 412 38,000 -60 Level Indianapolis Center
12:20AM 40.2139 -83.2814 299° West 355 409 37,900 -60 Descending Indianapolis Center
12:21AM 40.2608 -83.3953 298° West 353 406 37,900  Level Indianapolis Center
12:22AM 40.3081 -83.5103 298° West 357 411 37,900  Level Indianapolis Center
12:23AM 40.3553 -83.6242 299° West 355 409 37,900  Level Indianapolis Center
12:24AM 40.4022 -83.7403 298° West 358 412 38,000  Climbing Indianapolis Center
12:25AM 40.4486 -83.8547 298° West 357 411 38,000 -60 Level Indianapolis Center
12:26AM 40.4964 -83.9706 299° West 358 412 37,900  Descending Indianapolis Center
12:27AM 40.5406 -84.0881 296° West 359 413 38,000  Climbing Indianapolis Center
12:28AM 40.5814 -84.2092 294° West 360 414 38,000  Level Indianapolis Center
12:29AM 40.6203 -84.3306 293° West 358 412 38,000  Level Indianapolis Center
12:29AM 40.6561 -84.4353 294° West 360 414 38,000  Level Chicago Center
12:30AM 40.6950 -84.5561 293° West 360 414 38,000  Level Chicago Center
12:31AM 40.7350 -84.6769 294° West 359 413 38,000  Level Chicago Center
12:33AM 40.7758 -84.7986 294° West 362 417 38,000  Level Chicago Center
12:34AM 40.8156 -84.9208 293° West 362 417 38,000 -60 Level Chicago Center
12:35AM 40.8553 -85.0436 293° West 364 419 37,900 -600 Descending Chicago Center
12:36AM 40.8947 -85.1658 293° West 362 417 36,900 -1,020 Descending Chicago Center
12:37AM 40.9356 -85.2914 293° West 366 421 35,900 -1,020 Descending Chicago Center
12:38AM 40.9753 -85.4158 293° West 368 423 34,900 -960 Descending Chicago Center
12:39AM 41.0150 -85.5400 293° West 367 422 34,000 -1,020 Descending Chicago Center
12:40AM 41.0556 -85.6656 293° West 369 425 32,900 -1,080 Descending Chicago Center
12:41AM 41.0936 -85.7881 292° West 361 415 31,900 -1,200 Descending Chicago Center
12:42AM 41.1317 -85.9086 293° West 354 407 30,600 -1,380 Descending Chicago Center
12:43AM 41.1675 -86.0261 292° West 346 398 29,200 -1,560 Descending Chicago Center
12:44AM 41.2044 -86.1431 293° West 343 395 27,500 -1,920 Descending Chicago Center
12:45AM 41.2414 -86.2631 292° West 349 402 25,400 -2,220 Descending Chicago Center
12:46AM 41.2797 -86.3844 293° West 357 411 23,100 -2,160 Descending Chicago Center
12:47AM 41.3161 -86.5033 292° West 349 402 21,100 -2,040 Descending Chicago Center
12:48AM 41.3517 -86.6200 292° West 342 394 19,000 -1,860 Descending Chicago Center
12:49AM 41.3881 -86.7394 292° West 333 383 17,400 -1,800 Descending Chicago Center
12:50AM 41.4217 -86.8511 292° West 328 377 15,400 -1,980 Descending Chicago Center
12:51AM 41.4544 -86.9597 292° West 320 368 13,500 -2,100 Descending Chicago Center
12:52AM 41.4886 -87.0694 293° West 322 371 11,200 -1,260 Descending Chicago Center
12:53AM 41.5264 -87.1756 295° West 323 372 11,000 -300 Descending Chicago Center
12:54AM 41.5828 -87.2639 310° West 318 366 10,600 -900 Descending Chicago Center
12:55AM 41.6344 -87.3447 311° West 299 344 9,200 -1,500 Descending Chicago Center
12:56AM 41.6850 -87.4244 310° West 288 331 7,600 -1,140 Descending Chicago Center
12:57AM 41.7336 -87.5019 310° West 279 321 7,000 -660 Descending Chicago Center
12:58AM 41.7956 -87.5547 328° Northwest 277 319 6,300 -1,440 Descending Chicago Center
12:59AM 41.8833 -87.5667 354° North 287 330 4,300 -1,260 Descending Chicago TRACON
01:00AM 41.9500 -87.6333 323° Northwest 262 302 3,900 -540 Descending Chicago TRACON
01:01AM 41.9667 -87.7000 289° West 206 237 3,200 -840 Descending Chicago TRACON
01:02AM 41.9667 -87.7833 270° West 177 204 2,200 -1,020 Descending Chicago TRACON